Time;durP1;ratioP1;P1;durP2;ratioP2;P2;SDS_P1;SDS_P2;PMS_P1;PMS_P2;Temp;Humidity;BMP_temperature;BMP_pressure;BME280_temperature;BME280_humidity;BME280_pressure;Samples;Min_cycle;Max_cycle;Signal;HPM_P1;HPM_P2
2023/04/02 00:00:04;;;;;;;8.98;7.35;;;;;;;8.27;83.99;100973.00;5076302;28;20487;-90
2023/04/02 00:02:31;;;;;;;9.27;6.53;;;;;;;8.35;84.03;100993.88;5075816;28;20039;-90
2023/04/02 00:05:15;;;;;;;8.73;6.65;;;;;;;8.39;84.08;100992.88;5070786;28;20028;-90
2023/04/02 00:07:43;;;;;;;8.60;6.95;;;;;;;8.31;83.81;100995.72;5075551;28;20012;-90
2023/04/02 00:10:30;;;;;;;9.70;7.35;;;;;;;8.40;83.91;101002.53;5073937;28;20035;-90
2023/04/02 00:13:05;;;;;;;8.60;6.93;;;;;;;8.39;83.95;100998.13;5075614;28;20080;-90
2023/04/02 00:15:31;;;;;;;9.57;7.60;;;;;;;8.32;83.71;101001.84;5081273;28;20522;-90
2023/04/02 00:17:58;;;;;;;9.90;7.70;;;;;;;8.34;84.31;101002.66;5077346;28;20510;-89
2023/04/02 00:20:25;;;;;;;10.20;7.55;;;;;;;8.41;84.13;101012.16;5082254;28;20020;-90
2023/04/02 00:22:50;;;;;;;10.48;8.13;;;;;;;8.29;83.69;101013.31;5090733;28;20035;-89
2023/04/02 00:25:16;;;;;;;9.18;7.80;;;;;;;8.32;84.07;101017.66;5081186;28;20031;-90
2023/04/02 00:27:41;;;;;;;11.27;8.52;;;;;;;8.30;83.57;101022.06;5077314;28;20027;-90
2023/04/02 00:30:11;;;;;;;11.00;8.07;;;;;;;8.27;83.54;101030.94;5071184;28;20024;-89
2023/04/02 00:32:36;;;;;;;10.15;8.30;;;;;;;8.18;83.52;101021.53;5087313;28;20115;-90
2023/04/02 00:35:09;;;;;;;10.50;7.82;;;;;;;8.19;83.48;101035.53;5085656;28;20115;-90
2023/04/02 00:37:40;;;;;;;12.65;9.25;;;;;;;8.14;83.96;101027.78;5068663;28;20056;-89
2023/04/02 00:40:15;;;;;;;12.23;9.38;;;;;;;8.24;84.43;101038.91;5078419;28;20040;-90
2023/04/02 00:42:41;;;;;;;9.63;8.10;;;;;;;8.20;83.32;101039.91;5077303;28;20499;-90
2023/04/02 00:45:21;;;;;;;11.07;8.38;;;;;;;8.18;84.03;101045.22;5077981;28;20027;-90
2023/04/02 00:47:46;;;;;;;12.07;7.68;;;;;;;8.12;82.83;101040.13;5083581;28;20042;-90
2023/04/02 00:50:13;;;;;;;7.68;6.63;;;;;;;8.17;83.17;101055.81;5080878;28;20024;-89
2023/04/02 00:52:40;;;;;;;11.93;7.60;;;;;;;8.04;82.86;101052.63;5088084;28;20062;-90
2023/04/02 00:55:14;;;;;;;10.02;7.68;;;;;;;8.11;82.70;101062.09;5083652;28;20122;-90
2023/04/02 00:57:44;;;;;;;9.27;7.93;;;;;;;7.92;83.53;101059.06;5083198;28;20829;-89
2023/04/02 01:00:13;;;;;;;8.75;7.63;;;;;;;7.98;83.58;101076.50;5085100;28;20036;-90
2023/04/02 01:02:39;;;;;;;11.75;8.52;;;;;;;7.95;83.79;101068.66;5081083;28;20498;-90
2023/04/02 01:05:13;;;;;;;9.60;7.65;;;;;;;7.98;84.22;101084.38;5086273;28;20541;-90
2023/04/02 01:07:44;;;;;;;10.82;8.55;;;;;;;7.90;83.77;101088.97;5078710;28;20114;-91
2023/04/02 01:11:04;;;;;;;10.95;8.70;;;;;;;7.92;83.68;101095.06;5085106;28;20096;-90
2023/04/02 01:13:40;;;;;;;11.40;8.27;;;;;;;7.87;83.83;101094.31;5059697;28;20123;-91
2023/04/02 01:16:19;;;;;;;9.50;7.32;;;;;;;7.84;83.10;101097.03;5092663;28;20036;-90
2023/04/02 01:19:08;;;;;;;9.70;8.20;;;;;;;7.84;83.59;101108.44;5084160;28;20403;-90
2023/04/02 01:21:58;;;;;;;9.70;7.97;;;;;;;7.86;83.17;101111.00;5098973;28;20107;-90
2023/04/02 01:24:30;;;;;;;11.57;7.97;;;;;;;7.83;83.61;101111.97;5083310;28;20033;-91
2023/04/02 01:27:20;;;;;;;11.80;7.70;;;;;;;7.85;83.42;101119.81;5093601;28;20056;-90
2023/04/02 01:29:52;;;;;;;11.30;8.88;;;;;;;7.94;83.25;101103.78;5103034;28;20028;-90
2023/04/02 01:32:20;;;;;;;16.77;8.88;;;;;;;8.05;82.93;101114.03;5083417;28;20055;-90
2023/04/02 01:34:48;;;;;;;11.27;7.93;;;;;;;8.01;82.80;101126.41;5085556;28;20514;-90
2023/04/02 01:37:51;;;;;;;12.35;9.45;;;;;;;8.02;82.72;101136.06;5082445;28;20494;-90
2023/04/02 01:40:16;;;;;;;;;;;;;;;8.06;82.62;101142.09;5082043;28;20040;-91
2023/04/02 01:42:53;;;;;;;12.50;8.87;;;;;;;7.84;81.89;101133.88;5088336;28;20297;-90
2023/04/02 01:45:21;;;;;;;12.95;9.07;;;;;;;7.77;81.91;101134.91;5090579;28;20332;-90
2023/04/02 01:47:47;;;;;;;10.23;8.23;;;;;;;7.77;81.51;101143.69;5085900;28;20024;-90
2023/04/02 01:50:19;;;;;;;11.77;8.90;;;;;;;7.79;81.97;101152.41;5080110;28;20020;-90
2023/04/02 01:52:47;;;;;;;13.20;8.45;;;;;;;7.70;82.08;101152.63;5077404;28;20063;-90
2023/04/02 01:55:17;;;;;;;10.27;8.70;;;;;;;7.75;82.47;101170.94;5075734;28;20100;-90
2023/04/02 01:57:48;;;;;;;11.73;8.68;;;;;;;7.73;82.20;101167.47;5077504;28;20457;-90
2023/04/02 02:00:15;;;;;;;11.45;8.25;;;;;;;7.77;82.45;101174.41;5072358;28;20046;-89
2023/04/02 02:02:44;;;;;;;9.43;8.02;;;;;;;7.72;81.46;101169.25;5097257;28;20559;-90
2023/04/02 02:05:15;;;;;;;10.73;8.13;;;;;;;7.64;81.54;101158.88;5090321;28;20019;-90
2023/04/02 02:07:42;;;;;;;10.73;8.23;;;;;;;7.82;81.99;101189.19;5103381;28;20517;-90
2023/04/02 02:10:33;;;;;;;11.50;8.57;;;;;;;7.82;81.59;101189.19;5083257;28;20103;-90
2023/04/02 02:12:59;;;;;;;9.75;7.50;;;;;;;7.80;81.78;101198.03;5086388;28;20062;-90
2023/04/02 02:15:25;;;;;;;11.38;7.90;;;;;;;7.81;81.15;101200.63;5084887;28;20148;-90
2023/04/02 02:17:57;;;;;;;10.77;7.53;;;;;;;7.77;81.17;101195.44;5084448;28;20597;-90
2023/04/02 02:20:23;;;;;;;8.52;6.85;;;;;;;7.77;80.74;101198.94;5081308;28;20016;-90
2023/04/02 02:22:50;;;;;;;9.15;6.30;;;;;;;7.71;80.09;101220.16;5081182;28;20067;-89
2023/04/02 02:25:25;;;;;;;8.73;5.68;;;;;;;7.75;80.21;101221.81;5080203;28;20029;-90
2023/04/02 02:28:19;;;;;;;5.82;4.97;;;;;;;7.73;79.59;101226.22;5088058;28;20023;-90
2023/04/02 02:31:11;;;;;;;7.05;5.80;;;;;;;7.68;80.22;101223.69;5082247;28;20507;-89
2023/04/02 02:33:45;;;;;;;7.22;5.45;;;;;;;7.71;80.45;101229.81;5084476;28;20032;-90
2023/04/02 02:36:26;;;;;;;7.60;5.65;;;;;;;7.61;79.91;101216.88;5088147;28;20020;-90
2023/04/02 02:39:09;;;;;;;6.30;4.70;;;;;;;7.61;79.89;101237.91;5074352;28;20425;-90
2023/04/02 02:41:53;;;;;;;5.68;5.10;;;;;;;7.59;79.52;101233.56;5087021;28;20028;-90
2023/04/02 02:44:21;;;;;;;5.72;4.57;;;;;;;7.62;80.08;101246.66;5086907;28;20070;-91
2023/04/02 02:46:51;;;;;;;7.90;5.18;;;;;;;7.54;80.36;101252.09;5081033;28;20479;-90
2023/04/02 02:49:30;;;;;;;6.47;5.70;;;;;;;7.66;80.21;101264.13;5080162;28;20027;-90
2023/04/02 02:52:07;;;;;;;7.70;6.05;;;;;;;7.72;80.79;101269.25;5089851;28;20601;-90
2023/04/02 02:54:37;;;;;;;7.25;5.97;;;;;;;7.69;79.86;101264.03;5081424;28;20034;-90
2023/04/02 02:57:06;;;;;;;10.23;6.68;;;;;;;7.70;80.00;101272.84;5084202;28;20028;-91
2023/04/02 02:59:32;;;;;;;10.88;6.90;;;;;;;7.60;79.60;101274.75;5097681;27;20482;-90
2023/04/02 03:02:00;;;;;;;11.13;8.13;;;;;;;7.57;79.90;101274.84;5084167;28;20114;-90
2023/04/02 03:04:29;;;;;;;9.27;7.03;;;;;;;7.54;80.05;101281.03;5086849;28;20031;-90
2023/04/02 03:06:56;;;;;;;10.77;7.53;;;;;;;7.56;79.10;101289.75;5091995;28;20020;-89
2023/04/02 03:09:46;;;;;;;10.60;7.53;;;;;;;7.50;80.00;101284.59;5088046;28;20136;-90
2023/04/02 03:12:37;;;;;;;10.00;7.93;;;;;;;7.56;80.05;101292.41;5085226;28;20109;-90
2023/04/02 03:15:21;;;;;;;10.77;7.10;;;;;;;7.52;79.58;101295.13;5078358;28;20028;-89
2023/04/02 03:18:12;;;;;;;12.65;8.23;;;;;;;7.51;79.52;101302.16;5077359;28;20280;-90
2023/04/02 03:20:46;;;;;;;10.77;7.68;;;;;;;7.38;80.16;101298.88;5089661;28;20028;-90
2023/04/02 03:23:20;;;;;;;9.43;8.15;;;;;;;7.33;80.13;101307.78;5080834;28;20020;-91
2023/04/02 03:25:59;;;;;;;13.32;7.75;;;;;;;7.39;79.39;101331.31;5094703;28;20046;-90
2023/04/02 03:28:34;;;;;;;9.57;7.25;;;;;;;7.39;79.78;101331.31;5084262;28;20139;-91
2023/04/02 03:31:07;;;;;;;10.73;7.50;;;;;;;7.36;79.66;101337.50;5087029;28;20107;-91
2023/04/02 03:33:38;;;;;;;9.13;7.10;;;;;;;7.33;79.04;101347.22;5086902;28;20051;-90
2023/04/02 03:36:18;;;;;;;10.10;7.82;;;;;;;7.24;79.27;101339.50;5084931;28;20036;-90
2023/04/02 03:38:50;;;;;;;10.07;7.00;;;;;;;7.28;79.37;101359.59;5088176;28;20471;-90
2023/04/02 03:41:21;;;;;;;9.25;7.82;;;;;;;7.32;79.56;101367.41;5080016;28;20552;-90
2023/04/02 03:43:52;;;;;;;9.40;7.22;;;;;;;7.31;79.61;101365.63;5085579;28;20024;-90
2023/04/02 03:46:25;;;;;;;11.85;7.53;;;;;;;7.24;78.88;101366.66;5083374;28;20178;-90
2023/04/02 03:49:25;;;;;;;13.00;7.13;;;;;;;7.24;79.34;101387.69;5077816;28;20039;-90
2023/04/02 03:52:03;;;;;;;11.88;7.68;;;;;;;7.16;79.73;101382.56;5077649;28;20447;-90
2023/04/02 03:54:29;;;;;;;11.18;7.45;;;;;;;7.22;79.26;101397.38;5073847;28;20048;-90
2023/04/02 03:56:54;;;;;;;11.27;7.18;;;;;;;7.18;79.81;101395.72;5072692;28;20530;-90
2023/04/02 03:59:44;;;;;;;8.82;7.10;;;;;;;7.14;79.47;101408.03;5073057;28;20113;-91
2023/04/02 04:02:24;;;;;;;9.95;7.22;;;;;;;7.13;79.08;101413.28;5070655;28;20028;-90
2023/04/02 04:04:52;;;;;;;10.02;6.97;;;;;;;7.07;79.47;101405.53;5073486;28;20024;-91
2023/04/02 04:07:29;;;;;;;8.02;6.57;;;;;;;7.11;80.04;101418.59;5085203;28;20383;-90
2023/04/02 04:09:58;;;;;;;9.95;7.22;;;;;;;7.08;79.24;101416.00;5072209;28;20035;-90
2023/04/02 04:12:31;;;;;;;10.85;7.25;;;;;;;7.11;79.05;101423.00;5074554;28;20471;-91
2023/04/02 04:15:07;;;;;;;11.35;7.97;;;;;;;7.11;79.22;101426.47;5074453;28;20500;-90
2023/04/02 04:17:50;;;;;;;11.25;8.10;;;;;;;7.10;79.18;101427.38;5076675;28;20024;-91
2023/04/02 04:20:40;;;;;;;9.77;7.70;;;;;;;7.17;78.74;101441.28;5086912;27;20036;-90
2023/04/02 04:23:18;;;;;;;10.63;7.80;;;;;;;7.15;78.40;101450.97;5081336;28;20031;-91
2023/04/02 04:25:44;;;;;;;11.82;7.10;;;;;;;7.08;78.27;101459.84;5084505;28;20027;-90
2023/04/02 04:28:26;;;;;;;9.25;7.13;;;;;;;7.03;78.54;101467.78;5085711;28;20386;-91
2023/04/02 04:31:02;;;;;;;8.95;6.78;;;;;;;7.02;78.34;101471.31;5079174;28;20040;-92
2023/04/02 04:33:42;;;;;;;10.75;6.70;;;;;;;7.00;78.62;101475.75;5077416;28;20035;-91
2023/04/02 04:36:27;;;;;;;8.05;6.60;;;;;;;6.95;77.69;101474.94;5075135;28;20086;-91
2023/04/02 04:38:58;;;;;;;8.10;6.65;;;;;;;6.91;77.82;101478.50;5078795;28;20051;-91
2023/04/02 04:41:30;;;;;;;8.48;6.00;;;;;;;6.92;77.92;101487.25;5087897;28;20028;-90
2023/04/02 04:44:21;;;;;;;9.27;5.95;;;;;;;7.02;77.21;101505.50;5087251;28;20032;-91
2023/04/02 04:47:06;;;;;;;8.05;5.60;;;;;;;6.95;78.22;101510.84;5081245;28;20016;-91
2023/04/02 04:49:37;;;;;;;7.65;5.43;;;;;;;6.92;77.99;101511.78;5080162;28;22330;-91
2023/04/02 04:52:18;;;;;;;10.30;7.43;;;;;;;6.93;77.96;101513.50;5077032;28;20479;-91
2023/04/02 04:54:44;;;;;;;10.65;6.85;;;;;;;6.91;77.72;101528.44;5084592;28;20480;-91
2023/04/02 04:57:25;;;;;;;9.25;6.15;;;;;;;6.86;78.07;101522.41;5083956;28;20056;-91
2023/04/02 05:00:05;;;;;;;10.23;6.72;;;;;;;6.88;78.05;101539.88;5074468;28;20117;-91
2023/04/02 05:02:37;;;;;;;8.65;6.03;;;;;;;6.84;77.57;101530.28;5080667;28;20024;-91
2023/04/02 05:05:02;;;;;;;9.48;6.47;;;;;;;6.74;77.37;101543.56;5077125;28;20021;-90
2023/04/02 05:07:42;;;;;;;8.70;5.97;;;;;;;6.71;78.02;101551.47;5087280;28;20387;-90
2023/04/02 05:10:19;;;;;;;9.77;5.72;;;;;;;6.65;77.87;101549.81;5081381;28;20386;-89
2023/04/02 05:12:48;;;;;;;8.20;5.65;;;;;;;6.58;78.38;101540.28;5089611;28;20100;-91
2023/04/02 05:15:40;;;;;;;8.55;5.75;;;;;;;6.73;77.38;101566.34;5084227;28;20032;-90
2023/04/02 05:18:30;;;;;;;9.55;5.90;;;;;;;6.68;77.34;101578.69;5084201;28;20406;-91
2023/04/02 05:21:25;;;;;;;9.48;5.78;;;;;;;6.68;77.41;101583.94;5101917;27;20055;-91
2023/04/02 05:23:53;;;;;;;9.27;5.95;;;;;;;6.58;76.85;101591.06;5088492;28;20059;-91
2023/04/02 05:26:24;;;;;;;7.97;5.75;;;;;;;6.57;76.87;101589.31;5090299;28;20598;-91
2023/04/02 05:28:49;;;;;;;9.57;5.78;;;;;;;6.60;77.91;101594.53;5088295;28;20052;-90
2023/04/02 05:31:21;;;;;;;8.70;6.15;;;;;;;6.60;77.22;101586.66;5086500;28;20063;-91
2023/04/02 05:33:48;;;;;;;8.87;6.40;;;;;;;6.59;76.63;101584.06;5095381;28;20133;-90
2023/04/02 05:36:23;;;;;;;7.75;6.30;;;;;;;6.64;76.92;101595.38;5103050;28;20459;-91
2023/04/02 05:38:50;;;;;;;9.18;6.75;;;;;;;6.65;76.56;101600.59;5099398;28;20080;-90
2023/04/02 05:41:31;;;;;;;7.80;5.90;;;;;;;6.69;77.13;101611.09;5094931;28;20013;-91
2023/04/02 05:44:07;;;;;;;8.40;6.22;;;;;;;6.70;77.29;101612.81;5104325;28;20024;-91
2023/04/02 05:46:41;;;;;;;8.95;6.65;;;;;;;6.65;76.84;101616.38;5097034;28;20062;-91
2023/04/02 05:49:12;;;;;;;10.35;5.60;;;;;;;6.72;77.06;101626.81;5101645;28;20043;-90
2023/04/02 05:51:44;;;;;;;7.97;6.32;;;;;;;6.71;76.48;101630.31;5103228;28;20076;-90
2023/04/02 05:54:22;;;;;;;11.00;6.93;;;;;;;6.73;77.58;101641.69;5101010;28;20040;-90
2023/04/02 05:56:52;;;;;;;10.65;7.05;;;;;;;6.69;76.69;101634.72;5095446;28;20024;-91
2023/04/02 05:59:24;;;;;;;10.63;6.57;;;;;;;6.73;77.92;101639.06;5109452;27;20052;-90
2023/04/02 06:02:16;;;;;;;8.15;7.07;;;;;;;6.81;77.02;101653.88;5095409;28;20062;-91
2023/04/02 06:05:11;;;;;;;11.53;7.37;;;;;;;6.79;76.71;101658.25;5094328;28;20139;-91
2023/04/02 06:07:48;;;;;;;12.88;9.02;;;;;;;6.63;75.38;101660.19;5075674;28;20031;-91
2023/04/02 06:10:22;;;;;;;12.57;8.02;;;;;;;6.56;76.33;101668.13;5098852;28;20510;-91
2023/04/02 06:12:54;;;;;;;12.48;8.02;;;;;;;6.57;75.89;101672.50;5088334;28;20020;-91
2023/04/02 06:15:22;;;;;;;12.55;8.10;;;;;;;6.53;75.99;101682.19;5080601;28;20082;-91
2023/04/02 06:18:18;;;;;;;11.13;8.40;;;;;;;6.56;75.64;101690.03;5074197;28;20513;-90
2023/04/02 06:20:44;;;;;;;13.80;8.27;;;;;;;6.50;75.65;101697.97;5079823;28;20161;-90
2023/04/02 06:23:12;;;;;;;11.70;8.23;;;;;;;6.54;76.18;101701.44;5078172;28;20114;-91
2023/04/02 06:25:43;;;;;;;10.75;7.13;;;;;;;6.46;74.64;101691.00;5076776;28;20039;-92
2023/04/02 06:28:14;;;;;;;9.40;7.15;;;;;;;6.51;74.67;101710.22;5088060;28;20467;-91
2023/04/02 06:30:41;;;;;;;11.27;7.33;;;;;;;6.47;74.99;101705.88;5082807;28;20522;-91
2023/04/02 06:33:10;;;;;;;10.95;7.25;;;;;;;6.49;75.43;101719.03;5087751;28;20601;-91
2023/04/02 06:35:40;;;;;;;9.70;7.60;;;;;;;6.52;74.80;101719.84;5080335;28;20392;-91
2023/04/02 06:38:24;;;;;;;10.65;7.43;;;;;;;6.59;74.66;101736.44;5081344;28;20803;-90
2023/04/02 06:41:01;;;;;;;9.73;6.78;;;;;;;6.74;74.79;101736.28;5083461;28;20777;-91
2023/04/02 06:43:35;;;;;;;9.90;6.93;;;;;;;6.88;75.25;101738.75;5085776;28;20058;-90
2023/04/02 06:46:08;;;;;;;8.77;6.35;;;;;;;6.91;73.58;101744.00;5095289;28;20031;-91
2023/04/02 06:48:36;;;;;;;10.68;6.07;;;;;;;6.78;72.68;101750.25;5087378;28;20364;-90
2023/04/02 06:51:08;;;;;;;9.90;6.00;;;;;;;6.85;73.14;101757.19;5079938;28;20519;-91
2023/04/02 06:53:38;;;;;;;7.05;5.22;;;;;;;6.82;71.96;101757.22;5085199;28;20051;-90
2023/04/02 06:56:17;;;;;;;9.57;5.80;;;;;;;6.83;72.00;101780.00;5086079;28;20043;-91
2023/04/02 06:58:42;;;;;;;11.07;5.00;;;;;;;6.93;72.09;101773.75;5101307;28;20550;-90
2023/04/02 07:01:16;;;;;;;7.32;4.50;;;;;;;6.94;70.55;101787.75;5085449;28;20020;-90
2023/04/02 07:03:42;;;;;;;7.78;5.25;;;;;;;6.85;71.01;101781.72;5083317;28;20024;-92
2023/04/02 07:06:16;;;;;;;7.75;5.25;;;;;;;6.87;72.18;101782.56;5085374;28;20036;-91
2023/04/02 07:08:42;;;;;;;8.65;5.13;;;;;;;6.90;71.61;101795.69;5075243;28;20087;-91
2023/04/02 07:11:13;;;;;;;10.60;4.80;;;;;;;6.85;71.45;101802.75;5048194;28;1046040;-91
2023/04/02 07:13:38;;;;;;;8.88;4.72;;;;;;;6.88;70.89;101813.22;5084838;28;20036;-91
2023/04/02 07:16:04;;;;;;;7.00;3.95;;;;;;;6.74;70.52;101824.75;5082269;28;20043;-91
2023/04/02 07:18:32;;;;;;;8.32;3.88;;;;;;;6.58;71.39;101814.38;5083312;28;20024;-90
2023/04/02 07:20:57;;;;;;;7.30;3.58;;;;;;;6.55;70.60;101830.16;5081464;28;20023;-90
2023/04/02 07:23:23;;;;;;;5.90;3.45;;;;;;;6.60;71.73;101849.38;5079774;28;20020;-91
2023/04/02 07:25:51;;;;;;;6.88;4.03;;;;;;;6.47;72.33;101836.34;5075972;28;20020;-91
2023/04/02 07:28:17;;;;;;;6.38;4.03;;;;;;;6.56;72.07;101852.03;5087707;28;20482;-91
2023/04/02 07:30:44;;;;;;;6.60;3.65;;;;;;;6.40;72.12;101848.66;5079187;28;20108;-91
2023/04/02 07:33:15;;;;;;;6.25;3.58;;;;;;;6.31;71.47;101853.97;5082547;28;20023;-91
2023/04/02 07:35:41;;;;;;;6.38;2.72;;;;;;;6.44;71.12;101854.78;5087662;28;20024;-91
2023/04/02 07:38:06;;;;;;;5.97;2.80;;;;;;;6.34;70.06;101867.06;5079261;28;20549;-92
2023/04/02 07:40:32;;;;;;;8.82;3.58;;;;;;;6.24;71.45;101866.25;5088285;28;20126;-89
2023/04/02 07:42:57;;;;;;;5.82;2.80;;;;;;;6.26;71.42;101872.38;5084559;28;20523;-91
2023/04/02 07:45:22;;;;;;;5.00;3.40;;;;;;;6.19;70.74;101860.16;5081861;28;20024;-90
2023/04/02 07:47:47;;;;;;;6.00;3.10;;;;;;;6.37;70.70;101888.06;5081363;28;20387;-91
2023/04/02 07:50:13;;;;;;;5.93;3.08;;;;;;;6.47;71.66;101874.00;5075528;28;20091;-91
2023/04/02 07:52:41;;;;;;;3.60;2.55;;;;;;;6.49;70.20;101872.25;5083425;28;20070;-90
2023/04/02 07:55:12;;;;;;;5.55;3.00;;;;;;;6.59;69.80;101881.81;5083118;28;20024;-90
2023/04/02 07:57:48;;;;;;;4.85;2.70;;;;;;;6.64;70.05;101881.78;5081513;28;20032;-91
2023/04/02 08:00:15;;;;;;;7.55;3.00;;;;;;;6.76;69.41;101891.31;5096011;28;20062;-91
2023/04/02 08:02:41;;;;;;;5.75;2.88;;;;;;;6.73;69.57;101896.59;5082545;28;20399;-92
2023/04/02 08:05:07;;;;;;;4.55;2.95;;;;;;;6.71;69.72;101900.97;5080656;28;20058;-93
2023/04/02 08:07:33;;;;;;;5.68;3.13;;;;;;;6.71;68.92;101893.97;5092138;28;20038;-91
2023/04/02 08:09:58;;;;;;;6.35;2.75;;;;;;;6.87;68.96;101889.47;5073998;28;20396;-91
2023/04/02 08:12:24;;;;;;;4.57;2.88;;;;;;;7.04;68.37;101910.34;5091037;28;20042;-91
2023/04/02 08:14:49;;;;;;;6.70;2.88;;;;;;;7.08;68.28;101915.56;5082727;28;20042;-91
2023/04/02 08:17:15;;;;;;;7.80;2.80;;;;;;;7.04;67.99;101916.50;5081378;28;20491;-91
2023/04/02 08:19:41;;;;;;;5.00;2.60;;;;;;;7.11;67.61;101927.84;5082786;28;20064;-93
2023/04/02 08:22:06;;;;;;;6.05;2.67;;;;;;;7.14;67.45;101936.59;5081379;28;20024;-92
2023/04/02 08:24:31;;;;;;;4.50;2.53;;;;;;;7.10;67.49;101920.84;5082867;28;20705;-92
2023/04/02 08:26:56;;;;;;;8.93;3.13;;;;;;;7.16;68.48;101940.06;5085782;28;20499;-92
2023/04/02 08:29:22;;;;;;;5.85;2.60;;;;;;;7.21;67.79;101941.78;5096671;27;20035;-91
2023/04/02 08:31:47;;;;;;;5.90;2.40;;;;;;;6.99;68.59;101941.94;5081051;28;20475;-92
2023/04/02 08:34:13;;;;;;;3.92;2.53;;;;;;;7.04;68.70;101953.31;5083531;28;20034;-90
2023/04/02 08:36:42;;;;;;;4.40;2.28;;;;;;;7.05;68.03;101967.34;5081844;28;20426;-91
2023/04/02 08:39:10;;;;;;;4.00;2.28;;;;;;;7.10;68.41;101968.19;5080695;28;20024;-91
2023/04/02 08:41:43;;;;;;;5.47;2.55;;;;;;;7.27;69.31;101979.41;5082639;28;20031;-91
2023/04/02 08:44:23;;;;;;;3.42;2.55;;;;;;;7.48;68.75;101986.25;5078557;28;20089;-92
2023/04/02 08:47:04;;;;;;;3.85;2.88;;;;;;;7.66;68.78;101996.63;5086321;28;20028;-91
2023/04/02 08:49:38;;;;;;;3.65;2.58;;;;;;;7.60;67.62;101994.06;5082532;28;20034;-91
2023/04/02 08:52:04;;;;;;;3.33;2.20;;;;;;;7.32;66.86;101995.16;5081662;28;20506;-91
2023/04/02 08:54:41;;;;;;;2.70;2.50;;;;;;;7.34;68.16;102003.94;5088246;28;20020;-91
2023/04/02 08:57:20;;;;;;;3.70;2.25;;;;;;;7.32;66.43;102003.94;5075629;28;20081;-91
2023/04/02 08:59:46;;;;;;;3.17;2.30;;;;;;;7.21;67.11;101999.63;5077209;28;20031;-91
2023/04/02 09:02:30;;;;;;;3.50;2.35;;;;;;;7.40;67.13;102015.25;5075673;28;20127;-91
2023/04/02 09:04:57;;;;;;;4.45;2.33;;;;;;;7.54;65.54;102009.00;5081186;28;20390;-92
2023/04/02 09:07:23;;;;;;;5.03;2.38;;;;;;;7.65;65.99;102031.72;5080817;28;20097;-92
2023/04/02 09:09:49;;;;;;;3.33;2.20;;;;;;;7.59;66.45;102025.63;5074709;28;20499;-91
2023/04/02 09:12:22;;;;;;;4.55;2.28;;;;;;;7.82;66.81;102038.59;5086336;28;20044;-91
2023/04/02 09:15:09;;;;;;;4.60;2.10;;;;;;;7.89;64.36;102049.06;5094385;28;20027;-92
2023/04/02 09:17:36;;;;;;;5.00;2.40;;;;;;;7.99;65.54;102044.56;5080033;28;20072;-92
2023/04/02 09:20:20;;;;;;;4.00;2.50;;;;;;;8.00;65.13;102053.34;5080810;28;20043;-92
2023/04/02 09:22:47;;;;;;;3.28;2.25;;;;;;;7.87;65.09;102044.66;5093596;28;20229;-91
2023/04/02 09:25:17;;;;;;;4.85;1.90;;;;;;;7.84;65.16;102050.00;5081213;28;20257;-90
2023/04/02 09:27:48;;;;;;;3.65;2.03;;;;;;;7.91;65.34;102059.56;5082224;28;20035;-91
2023/04/02 09:30:51;;;;;;;4.88;2.30;;;;;;;7.64;65.32;102069.44;5077390;28;20043;-92
2023/04/02 09:33:18;;;;;;;7.68;3.33;;;;;;;7.67;65.53;102084.34;5079654;28;20031;-91
2023/04/02 09:35:49;;;;;;;5.20;2.40;;;;;;;7.66;66.36;102087.88;5086469;28;20020;-91
2023/04/02 09:38:27;;;;;;;3.00;2.05;;;;;;;7.63;65.66;102088.75;5083915;28;20028;-92
2023/04/02 09:40:53;;;;;;;3.10;2.00;;;;;;;7.70;65.38;102097.50;5083051;28;20016;-91
2023/04/02 09:43:27;;;;;;;3.80;1.75;;;;;;;7.74;65.86;102101.84;5076930;28;20042;-92
2023/04/02 09:46:02;;;;;;;4.78;2.17;;;;;;;7.80;65.37;102107.06;5088828;28;20121;-92
2023/04/02 09:48:48;;;;;;;4.45;2.38;;;;;;;7.63;66.27;102094.03;5090496;28;20052;-92
2023/04/02 09:51:17;;;;;;;4.97;2.17;;;;;;;7.48;66.40;102101.16;5080203;28;20032;-92
2023/04/02 09:54:07;;;;;;;4.40;2.50;;;;;;;7.61;66.42;102111.59;5079386;28;20028;-92
2023/04/02 09:56:34;;;;;;;5.30;2.75;;;;;;;7.67;66.96;102116.81;5088378;28;20612;-92
2023/04/02 09:59:16;;;;;;;2.65;2.45;;;;;;;7.62;66.47;102126.50;5094225;27;20736;-91
2023/04/02 10:01:46;;;;;;;5.82;2.92;;;;;;;7.62;66.88;102130.88;5087887;28;20060;-91
2023/04/02 10:04:45;;;;;;;4.57;2.42;;;;;;;7.64;66.58;102140.50;5079508;28;20024;-92
2023/04/02 10:07:37;;;;;;;4.43;2.35;;;;;;;7.61;66.78;102143.19;5083373;28;20059;-91
2023/04/02 10:10:18;;;;;;;7.43;2.85;;;;;;;7.54;66.80;102143.22;5081157;28;20035;-92
2023/04/02 10:12:49;;;;;;;4.03;2.65;;;;;;;7.44;67.38;102126.63;5081887;28;20028;-91
2023/04/02 10:15:20;;;;;;;5.43;2.55;;;;;;;7.41;66.63;102134.53;5078442;28;20051;-91
2023/04/02 10:18:03;;;;;;;3.83;2.90;;;;;;;7.40;65.87;102138.91;5086690;28;20036;-91
2023/04/02 10:20:30;;;;;;;2.90;2.33;;;;;;;7.46;66.60;102137.13;5091915;28;20494;-91
2023/04/02 10:22:56;;;;;;;3.38;2.10;;;;;;;7.50;66.10;102150.25;5086451;28;20456;-92
2023/04/02 10:25:26;;;;;;;3.55;2.45;;;;;;;7.57;67.14;102149.34;5086690;28;20055;-91
2023/04/02 10:28:00;;;;;;;3.72;1.92;;;;;;;7.65;64.99;102159.81;5086652;28;20501;-92
2023/04/02 10:30:54;;;;;;;2.90;2.35;;;;;;;7.97;66.28;102153.41;5099274;28;20111;-91
2023/04/02 10:33:28;;;;;;;3.10;2.15;;;;;;;8.08;64.45;102149.81;5089480;28;20093;-90
2023/04/02 10:36:45;;;;;;;2.95;2.20;;;;;;;8.27;64.49;102160.19;5089325;28;20032;-91
2023/04/02 10:39:30;;;;;;;2.28;1.90;;;;;;;8.21;62.82;102165.50;5067139;28;20036;-91
2023/04/02 10:42:23;;;;;;;2.50;2.30;;;;;;;8.15;64.56;102183.09;5088855;28;20487;-92
2023/04/02 10:45:12;;;;;;;3.20;2.20;;;;;;;8.11;62.96;102193.69;5079921;28;20016;-91
2023/04/02 10:48:21;;;;;;;2.55;2.20;;;;;;;8.10;64.17;102197.22;5091285;28;20036;-92
2023/04/02 10:50:55;;;;;;;2.78;2.50;;;;;;;8.16;64.32;102190.16;5088267;28;20031;-92
2023/04/02 10:53:32;;;;;;;3.83;2.53;;;;;;;8.24;65.40;102194.47;5088909;28;20472;-92
2023/04/02 10:56:02;;;;;;;3.55;2.00;;;;;;;8.27;63.43;102197.09;5084068;28;20024;-91
2023/04/02 10:58:30;;;;;;;2.95;2.30;;;;;;;8.47;65.09;102192.53;5088588;28;20105;-92
2023/04/02 11:01:15;;;;;;;3.30;2.60;;;;;;;8.76;64.18;102180.78;5083552;28;20035;-90
2023/04/02 11:03:45;;;;;;;2.70;2.17;;;;;;;9.14;61.61;102178.59;5082349;28;20024;-91
2023/04/02 11:06:24;;;;;;;4.35;2.33;;;;;;;9.00;61.84;102183.19;5091242;28;20024;-91
2023/04/02 11:08:54;;;;;;;3.42;2.20;;;;;;;9.05;61.33;102188.41;5088404;28;20020;-91
2023/04/02 11:11:26;;;;;;;3.90;2.20;;;;;;;9.16;61.07;102199.69;5095270;28;20043;-91
2023/04/02 11:14:00;;;;;;;;;;;;;;;9.34;61.24;102210.00;5090372;28;20019;-92
2023/04/02 11:16:26;;;;;;;6.10;2.38;;;;;;;9.43;61.91;102214.28;5094801;28;19906;-91
2023/04/02 11:19:13;;;;;;;5.40;2.10;;;;;;;9.50;60.47;102215.06;5088031;28;20030;-92
2023/04/02 11:21:48;;;;;;;3.15;2.42;;;;;;;9.56;61.18;102222.88;5086423;28;20039;-91
2023/04/02 11:24:32;;;;;;;4.60;2.03;;;;;;;9.78;57.80;102234.03;5087376;28;20024;-92
2023/04/02 11:27:10;;;;;;;2.28;1.88;;;;;;;10.31;58.95;102230.59;5093746;28;20036;-91
2023/04/02 11:29:39;;;;;;;5.15;1.90;;;;;;;10.34;59.18;102241.09;5078999;28;20475;-90
2023/04/02 11:32:23;;;;;;;3.95;1.92;;;;;;;10.33;58.12;102238.50;5092499;28;20057;-90
2023/04/02 11:34:49;;;;;;;3.90;1.90;;;;;;;10.42;57.19;102233.91;5089577;28;20487;-92
2023/04/02 11:37:31;;;;;;;2.80;1.70;;;;;;;10.46;57.40;102242.69;5092490;28;20031;-91
2023/04/02 11:39:58;;;;;;;2.17;1.60;;;;;;;10.25;57.54;102241.25;5088504;28;20047;-93
2023/04/02 11:42:34;;;;;;;3.97;1.90;;;;;;;9.96;58.10;102242.56;5094504;28;20095;-92
2023/04/02 11:45:18;;;;;;;1.80;1.63;;;;;;;9.95;58.67;102261.09;5087372;28;20020;-91
2023/04/02 11:48:24;;;;;;;3.65;1.73;;;;;;;9.99;58.88;102260.16;5091481;28;20072;-93
2023/04/02 11:50:49;;;;;;;4.60;2.00;;;;;;;9.74;57.51;102256.09;5089168;28;20033;-92
2023/04/02 11:53:19;;;;;;;2.40;2.03;;;;;;;9.74;59.16;102272.81;5089363;28;20499;-93
2023/04/02 11:56:05;;;;;;;5.68;1.83;;;;;;;9.81;58.11;102269.19;5104442;27;20103;-92
2023/04/02 11:58:56;;;;;;;2.33;1.90;;;;;;;9.85;60.11;102276.19;5098381;28;20027;-93
2023/04/02 12:01:44;;;;;;;3.97;2.00;;;;;;;9.94;58.07;102272.56;5082764;28;20024;-93
2023/04/02 12:04:21;;;;;;;2.83;2.05;;;;;;;9.81;58.05;102285.06;5089598;28;20039;-94